<?xml version="1.0" encoding="utf-8"?>
<gpx xmlns:xsi="http://www.w3.org/2001/XMLSchema-instance" xmlns:xsd="http://www.w3.org/2001/XMLSchema" version="1.1" creator="Shapelink.com" xmlns="http://www.topografix.com/GPX/1/1" xmlns:gpxtpx="http://www.garmin.com/xmlschemas/TrackPointExtension/v1">
  <metadata>
    <name>Running 5.38 km, 2014-05-19</name>
    <desc></desc>
    <author><name>Carl Grundberg</name></author> 
    <time>2014-05-19T17:26:36Z</time>
  </metadata>
  <trk>
    <name>Running 5.38 km, 2014-05-19</name>
    <trkseg>
      <trkpt lat="56.3488495" lon="13.6463475">
        <ele>115.976</ele>
        <time>2014-05-19T17:26:36Z</time>
      </trkpt>
      <trkpt lat="56.3488483" lon="13.6463371">
        <ele>115.976</ele>
        <time>2014-05-19T17:26:40Z</time>
      </trkpt>
      <trkpt lat="56.3488826" lon="13.6464611">
        <ele>116.938</ele>
        <time>2014-05-19T17:26:47Z</time>
      </trkpt>
      <trkpt lat="56.3488729" lon="13.6465378">
        <ele>116.938</ele>
        <time>2014-05-19T17:26:49Z</time>
      </trkpt>
      <trkpt lat="56.3487069" lon="13.6467359">
        <ele>117.899</ele>
        <time>2014-05-19T17:26:55Z</time>
      </trkpt>
      <trkpt lat="56.3484651" lon="13.6470077">
        <ele>118.379</ele>
        <time>2014-05-19T17:27:02Z</time>
      </trkpt>
      <trkpt lat="56.3481876" lon="13.6473194">
        <ele>118.379</ele>
        <time>2014-05-19T17:27:09Z</time>
      </trkpt>
      <trkpt lat="56.3478684" lon="13.6476861">
        <ele>118.379</ele>
        <time>2014-05-19T17:27:16Z</time>
      </trkpt>
      <trkpt lat="56.347532" lon="13.6480629">
        <ele>117.899</ele>
        <time>2014-05-19T17:27:23Z</time>
      </trkpt>
      <trkpt lat="56.3471581" lon="13.6485056">
        <ele>117.418</ele>
        <time>2014-05-19T17:27:31Z</time>
      </trkpt>
      <trkpt lat="56.3466786" lon="13.6490623">
        <ele>116.938</ele>
        <time>2014-05-19T17:27:41Z</time>
      </trkpt>
      <trkpt lat="56.3462893" lon="13.6495199">
        <ele>115.976</ele>
        <time>2014-05-19T17:27:49Z</time>
      </trkpt>
      <trkpt lat="56.3459455" lon="13.6499258">
        <ele>115.015</ele>
        <time>2014-05-19T17:27:56Z</time>
      </trkpt>
      <trkpt lat="56.3455591" lon="13.6503584">
        <ele>115.015</ele>
        <time>2014-05-19T17:28:04Z</time>
      </trkpt>
      <trkpt lat="56.3450819" lon="13.6509128">
        <ele>115.015</ele>
        <time>2014-05-19T17:28:14Z</time>
      </trkpt>
      <trkpt lat="56.3447638" lon="13.6512677">
        <ele>113.092</ele>
        <time>2014-05-19T17:28:20Z</time>
      </trkpt>
      <trkpt lat="56.3444947" lon="13.6515794">
        <ele>110.208</ele>
        <time>2014-05-19T17:28:24Z</time>
      </trkpt>
      <trkpt lat="56.3443408" lon="13.6520085">
        <ele>109.728</ele>
        <time>2014-05-19T17:28:28Z</time>
      </trkpt>
      <trkpt lat="56.3442079" lon="13.6528791">
        <ele>108.286</ele>
        <time>2014-05-19T17:28:35Z</time>
      </trkpt>
      <trkpt lat="56.3441626" lon="13.6531164">
        <ele>107.805</ele>
        <time>2014-05-19T17:28:37Z</time>
      </trkpt>
      <trkpt lat="56.3441349" lon="13.6537189">
        <ele>107.805</ele>
        <time>2014-05-19T17:28:42Z</time>
      </trkpt>
      <trkpt lat="56.3442872" lon="13.654487">
        <ele>107.324</ele>
        <time>2014-05-19T17:28:49Z</time>
      </trkpt>
      <trkpt lat="56.3442629" lon="13.6549326">
        <ele>108.286</ele>
        <time>2014-05-19T17:28:53Z</time>
      </trkpt>
      <trkpt lat="56.3441879" lon="13.6550937">
        <ele>108.286</ele>
        <time>2014-05-19T17:28:55Z</time>
      </trkpt>
      <trkpt lat="56.3438418" lon="13.6555924">
        <ele>107.805</ele>
        <time>2014-05-19T17:29:03Z</time>
      </trkpt>
      <trkpt lat="56.3434991" lon="13.6560894">
        <ele>109.247</ele>
        <time>2014-05-19T17:29:11Z</time>
      </trkpt>
      <trkpt lat="56.3433545" lon="13.6563435">
        <ele>109.728</ele>
        <time>2014-05-19T17:29:15Z</time>
      </trkpt>
      <trkpt lat="56.3431824" lon="13.6568415">
        <ele>109.247</ele>
        <time>2014-05-19T17:29:21Z</time>
      </trkpt>
      <trkpt lat="56.3431238" lon="13.657027">
        <ele>109.247</ele>
        <time>2014-05-19T17:29:23Z</time>
      </trkpt>
      <trkpt lat="56.3429725" lon="13.6574585">
        <ele>109.247</ele>
        <time>2014-05-19T17:29:28Z</time>
      </trkpt>
      <trkpt lat="56.3429665" lon="13.6578099">
        <ele>110.208</ele>
        <time>2014-05-19T17:29:32Z</time>
      </trkpt>
      <trkpt lat="56.3430043" lon="13.6583425">
        <ele>111.65</ele>
        <time>2014-05-19T17:29:39Z</time>
      </trkpt>
      <trkpt lat="56.3430358" lon="13.6588722">
        <ele>111.65</ele>
        <time>2014-05-19T17:29:47Z</time>
      </trkpt>
      <trkpt lat="56.3430617" lon="13.6591088">
        <ele>111.65</ele>
        <time>2014-05-19T17:29:52Z</time>
      </trkpt>
      <trkpt lat="56.34293" lon="13.6592528">
        <ele>111.65</ele>
        <time>2014-05-19T17:29:57Z</time>
      </trkpt>
      <trkpt lat="56.3428851" lon="13.6592638">
        <ele>111.17</ele>
        <time>2014-05-19T17:29:58Z</time>
      </trkpt>
      <trkpt lat="56.342565" lon="13.6593355">
        <ele>108.766</ele>
        <time>2014-05-19T17:30:03Z</time>
      </trkpt>
      <trkpt lat="56.3420927" lon="13.6594646">
        <ele>106.844</ele>
        <time>2014-05-19T17:30:09Z</time>
      </trkpt>
      <trkpt lat="56.3416694" lon="13.6596628">
        <ele>106.363</ele>
        <time>2014-05-19T17:30:15Z</time>
      </trkpt>
      <trkpt lat="56.3413094" lon="13.6598169">
        <ele>105.882</ele>
        <time>2014-05-19T17:30:21Z</time>
      </trkpt>
      <trkpt lat="56.3409997" lon="13.659939">
        <ele>105.882</ele>
        <time>2014-05-19T17:30:27Z</time>
      </trkpt>
      <trkpt lat="56.3409026" lon="13.6598874">
        <ele>105.882</ele>
        <time>2014-05-19T17:30:31Z</time>
      </trkpt>
      <trkpt lat="56.3408881" lon="13.6598086">
        <ele>105.402</ele>
        <time>2014-05-19T17:30:35Z</time>
      </trkpt>
      <trkpt lat="56.3408842" lon="13.6597982">
        <ele>104.921</ele>
        <time>2014-05-19T17:30:36Z</time>
      </trkpt>
      <trkpt lat="56.3408821" lon="13.6597637">
        <ele>105.402</ele>
        <time>2014-05-19T17:30:44Z</time>
      </trkpt>
      <trkpt lat="56.3408533" lon="13.6596976">
        <ele>105.882</ele>
        <time>2014-05-19T17:30:47Z</time>
      </trkpt>
      <trkpt lat="56.3407784" lon="13.6594708">
        <ele>104.921</ele>
        <time>2014-05-19T17:30:52Z</time>
      </trkpt>
      <trkpt lat="56.3406677" lon="13.6591674">
        <ele>105.402</ele>
        <time>2014-05-19T17:30:58Z</time>
      </trkpt>
      <trkpt lat="56.3405801" lon="13.6589229">
        <ele>107.324</ele>
        <time>2014-05-19T17:31:03Z</time>
      </trkpt>
      <trkpt lat="56.3405104" lon="13.6586861">
        <ele>108.286</ele>
        <time>2014-05-19T17:31:08Z</time>
      </trkpt>
      <trkpt lat="56.3404428" lon="13.6584473">
        <ele>109.728</ele>
        <time>2014-05-19T17:31:13Z</time>
      </trkpt>
      <trkpt lat="56.3403641" lon="13.6581898">
        <ele>111.65</ele>
        <time>2014-05-19T17:31:18Z</time>
      </trkpt>
      <trkpt lat="56.3402929" lon="13.6579489">
        <ele>112.131</ele>
        <time>2014-05-19T17:31:23Z</time>
      </trkpt>
      <trkpt lat="56.340208" lon="13.6577305">
        <ele>112.612</ele>
        <time>2014-05-19T17:31:28Z</time>
      </trkpt>
      <trkpt lat="56.3400841" lon="13.6575365">
        <ele>113.092</ele>
        <time>2014-05-19T17:31:34Z</time>
      </trkpt>
      <trkpt lat="56.339909" lon="13.6574111">
        <ele>113.092</ele>
        <time>2014-05-19T17:31:40Z</time>
      </trkpt>
      <trkpt lat="56.3397973" lon="13.6573056">
        <ele>113.573</ele>
        <time>2014-05-19T17:31:44Z</time>
      </trkpt>
      <trkpt lat="56.3397472" lon="13.6572507">
        <ele>113.573</ele>
        <time>2014-05-19T17:31:46Z</time>
      </trkpt>
      <trkpt lat="56.3396383" lon="13.6570532">
        <ele>115.976</ele>
        <time>2014-05-19T17:31:51Z</time>
      </trkpt>
      <trkpt lat="56.3395405" lon="13.6569767">
        <ele>116.457</ele>
        <time>2014-05-19T17:31:55Z</time>
      </trkpt>
      <trkpt lat="56.339414" lon="13.6570488">
        <ele>118.379</ele>
        <time>2014-05-19T17:32:00Z</time>
      </trkpt>
      <trkpt lat="56.3392912" lon="13.6572099">
        <ele>118.86</ele>
        <time>2014-05-19T17:32:05Z</time>
      </trkpt>
      <trkpt lat="56.3391186" lon="13.6573795">
        <ele>118.86</ele>
        <time>2014-05-19T17:32:11Z</time>
      </trkpt>
      <trkpt lat="56.3390941" lon="13.6574015">
        <ele>118.86</ele>
        <time>2014-05-19T17:32:12Z</time>
      </trkpt>
      <trkpt lat="56.3389463" lon="13.6574019">
        <ele>118.86</ele>
        <time>2014-05-19T17:32:17Z</time>
      </trkpt>
      <trkpt lat="56.3388805" lon="13.6573922">
        <ele>118.86</ele>
        <time>2014-05-19T17:32:19Z</time>
      </trkpt>
      <trkpt lat="56.3387657" lon="13.6573443">
        <ele>119.341</ele>
        <time>2014-05-19T17:32:23Z</time>
      </trkpt>
      <trkpt lat="56.3386122" lon="13.6572502">
        <ele>118.379</ele>
        <time>2014-05-19T17:32:29Z</time>
      </trkpt>
      <trkpt lat="56.3384893" lon="13.6571502">
        <ele>117.418</ele>
        <time>2014-05-19T17:32:34Z</time>
      </trkpt>
      <trkpt lat="56.3384194" lon="13.6570802">
        <ele>117.899</ele>
        <time>2014-05-19T17:32:37Z</time>
      </trkpt>
      <trkpt lat="56.3383096" lon="13.6570413">
        <ele>117.899</ele>
        <time>2014-05-19T17:32:41Z</time>
      </trkpt>
      <trkpt lat="56.3381438" lon="13.6570362">
        <ele>117.899</ele>
        <time>2014-05-19T17:32:47Z</time>
      </trkpt>
      <trkpt lat="56.338024" lon="13.6570436">
        <ele>118.86</ele>
        <time>2014-05-19T17:32:51Z</time>
      </trkpt>
      <trkpt lat="56.3379107" lon="13.6570127">
        <ele>119.341</ele>
        <time>2014-05-19T17:32:55Z</time>
      </trkpt>
      <trkpt lat="56.3378133" lon="13.6570016">
        <ele>120.302</ele>
        <time>2014-05-19T17:32:58Z</time>
      </trkpt>
      <trkpt lat="56.3377406" lon="13.6569915">
        <ele>120.302</ele>
        <time>2014-05-19T17:33:02Z</time>
      </trkpt>
      <trkpt lat="56.3376316" lon="13.657042">
        <ele>120.302</ele>
        <time>2014-05-19T17:33:07Z</time>
      </trkpt>
      <trkpt lat="56.3376134" lon="13.6570538">
        <ele>120.783</ele>
        <time>2014-05-19T17:33:08Z</time>
      </trkpt>
      <trkpt lat="56.3375187" lon="13.6571951">
        <ele>121.264</ele>
        <time>2014-05-19T17:33:13Z</time>
      </trkpt>
      <trkpt lat="56.3374859" lon="13.657251">
        <ele>121.264</ele>
        <time>2014-05-19T17:33:15Z</time>
      </trkpt>
      <trkpt lat="56.337401" lon="13.6574268">
        <ele>121.264</ele>
        <time>2014-05-19T17:33:20Z</time>
      </trkpt>
      <trkpt lat="56.33733" lon="13.6575944">
        <ele>121.744</ele>
        <time>2014-05-19T17:33:24Z</time>
      </trkpt>
      <trkpt lat="56.3372896" lon="13.6576901">
        <ele>122.225</ele>
        <time>2014-05-19T17:33:26Z</time>
      </trkpt>
      <trkpt lat="56.3371368" lon="13.6578975">
        <ele>122.225</ele>
        <time>2014-05-19T17:33:32Z</time>
      </trkpt>
      <trkpt lat="56.3370057" lon="13.6580811">
        <ele>122.705</ele>
        <time>2014-05-19T17:33:38Z</time>
      </trkpt>
      <trkpt lat="56.3369819" lon="13.6581189">
        <ele>123.186</ele>
        <time>2014-05-19T17:33:39Z</time>
      </trkpt>
      <trkpt lat="56.3368486" lon="13.6581705">
        <ele>123.667</ele>
        <time>2014-05-19T17:33:44Z</time>
      </trkpt>
      <trkpt lat="56.3368278" lon="13.6581483">
        <ele>123.667</ele>
        <time>2014-05-19T17:33:45Z</time>
      </trkpt>
      <trkpt lat="56.3367722" lon="13.6580633">
        <ele>124.147</ele>
        <time>2014-05-19T17:33:48Z</time>
      </trkpt>
      <trkpt lat="56.3366406" lon="13.6579385">
        <ele>125.109</ele>
        <time>2014-05-19T17:33:53Z</time>
      </trkpt>
      <trkpt lat="56.336545" lon="13.6578561">
        <ele>125.589</ele>
        <time>2014-05-19T17:33:57Z</time>
      </trkpt>
      <trkpt lat="56.3365162" lon="13.6578323">
        <ele>125.589</ele>
        <time>2014-05-19T17:33:58Z</time>
      </trkpt>
      <trkpt lat="56.3363285" lon="13.657644">
        <ele>126.07</ele>
        <time>2014-05-19T17:34:05Z</time>
      </trkpt>
      <trkpt lat="56.3362423" lon="13.6574273">
        <ele>127.031</ele>
        <time>2014-05-19T17:34:10Z</time>
      </trkpt>
      <trkpt lat="56.3362266" lon="13.6571666">
        <ele>127.031</ele>
        <time>2014-05-19T17:34:15Z</time>
      </trkpt>
      <trkpt lat="56.336214" lon="13.6569249">
        <ele>127.993</ele>
        <time>2014-05-19T17:34:20Z</time>
      </trkpt>
      <trkpt lat="56.3361941" lon="13.6566969">
        <ele>128.473</ele>
        <time>2014-05-19T17:34:24Z</time>
      </trkpt>
      <trkpt lat="56.33612" lon="13.6563821">
        <ele>129.435</ele>
        <time>2014-05-19T17:34:30Z</time>
      </trkpt>
      <trkpt lat="56.3360956" lon="13.6563469">
        <ele>129.435</ele>
        <time>2014-05-19T17:34:31Z</time>
      </trkpt>
      <trkpt lat="56.3359827" lon="13.6561876">
        <ele>129.435</ele>
        <time>2014-05-19T17:34:37Z</time>
      </trkpt>
      <trkpt lat="56.3358846" lon="13.6560891">
        <ele>127.993</ele>
        <time>2014-05-19T17:34:41Z</time>
      </trkpt>
      <trkpt lat="56.3358578" lon="13.6560556">
        <ele>127.512</ele>
        <time>2014-05-19T17:34:42Z</time>
      </trkpt>
      <trkpt lat="56.3357826" lon="13.6558899">
        <ele>127.031</ele>
        <time>2014-05-19T17:34:46Z</time>
      </trkpt>
      <trkpt lat="56.3356972" lon="13.6556221">
        <ele>126.07</ele>
        <time>2014-05-19T17:34:52Z</time>
      </trkpt>
      <trkpt lat="56.3356351" lon="13.6554215">
        <ele>125.589</ele>
        <time>2014-05-19T17:34:56Z</time>
      </trkpt>
      <trkpt lat="56.3355801" lon="13.6551389">
        <ele>126.07</ele>
        <time>2014-05-19T17:35:01Z</time>
      </trkpt>
      <trkpt lat="56.3355409" lon="13.6548518">
        <ele>125.589</ele>
        <time>2014-05-19T17:35:06Z</time>
      </trkpt>
      <trkpt lat="56.3355066" lon="13.6545043">
        <ele>126.551</ele>
        <time>2014-05-19T17:35:12Z</time>
      </trkpt>
      <trkpt lat="56.3354993" lon="13.6544533">
        <ele>126.551</ele>
        <time>2014-05-19T17:35:13Z</time>
      </trkpt>
      <trkpt lat="56.3354537" lon="13.6542897">
        <ele>126.551</ele>
        <time>2014-05-19T17:35:18Z</time>
      </trkpt>
      <trkpt lat="56.3353899" lon="13.6541877">
        <ele>127.512</ele>
        <time>2014-05-19T17:35:21Z</time>
      </trkpt>
      <trkpt lat="56.3352828" lon="13.6540456">
        <ele>127.512</ele>
        <time>2014-05-19T17:35:26Z</time>
      </trkpt>
      <trkpt lat="56.33526" lon="13.6540063">
        <ele>127.512</ele>
        <time>2014-05-19T17:35:27Z</time>
      </trkpt>
      <trkpt lat="56.3352231" lon="13.6539181">
        <ele>127.512</ele>
        <time>2014-05-19T17:35:29Z</time>
      </trkpt>
      <trkpt lat="56.3351334" lon="13.6537829">
        <ele>127.993</ele>
        <time>2014-05-19T17:35:33Z</time>
      </trkpt>
      <trkpt lat="56.3350247" lon="13.6536928">
        <ele>127.993</ele>
        <time>2014-05-19T17:35:38Z</time>
      </trkpt>
      <trkpt lat="56.3349278" lon="13.6536722">
        <ele>128.473</ele>
        <time>2014-05-19T17:35:41Z</time>
      </trkpt>
      <trkpt lat="56.3347988" lon="13.653566">
        <ele>129.435</ele>
        <time>2014-05-19T17:35:46Z</time>
      </trkpt>
      <trkpt lat="56.3347426" lon="13.6535353">
        <ele>129.435</ele>
        <time>2014-05-19T17:35:48Z</time>
      </trkpt>
      <trkpt lat="56.3345883" lon="13.6534476">
        <ele>127.993</ele>
        <time>2014-05-19T17:35:55Z</time>
      </trkpt>
      <trkpt lat="56.3344322" lon="13.6533077">
        <ele>127.512</ele>
        <time>2014-05-19T17:36:01Z</time>
      </trkpt>
      <trkpt lat="56.3343649" lon="13.6532356">
        <ele>127.512</ele>
        <time>2014-05-19T17:36:04Z</time>
      </trkpt>
      <trkpt lat="56.3342749" lon="13.6531341">
        <ele>127.512</ele>
        <time>2014-05-19T17:36:08Z</time>
      </trkpt>
      <trkpt lat="56.3341396" lon="13.6529">
        <ele>127.993</ele>
        <time>2014-05-19T17:36:15Z</time>
      </trkpt>
      <trkpt lat="56.3340306" lon="13.6527469">
        <ele>128.954</ele>
        <time>2014-05-19T17:36:20Z</time>
      </trkpt>
      <trkpt lat="56.333906" lon="13.6526364">
        <ele>128.473</ele>
        <time>2014-05-19T17:36:26Z</time>
      </trkpt>
      <trkpt lat="56.3337972" lon="13.6526794">
        <ele>128.473</ele>
        <time>2014-05-19T17:36:31Z</time>
      </trkpt>
      <trkpt lat="56.3337475" lon="13.6527366">
        <ele>127.512</ele>
        <time>2014-05-19T17:36:34Z</time>
      </trkpt>
      <trkpt lat="56.3336568" lon="13.6528393">
        <ele>127.512</ele>
        <time>2014-05-19T17:36:38Z</time>
      </trkpt>
      <trkpt lat="56.3335719" lon="13.6530315">
        <ele>127.512</ele>
        <time>2014-05-19T17:36:44Z</time>
      </trkpt>
      <trkpt lat="56.3335356" lon="13.6532457">
        <ele>127.512</ele>
        <time>2014-05-19T17:36:49Z</time>
      </trkpt>
      <trkpt lat="56.3334718" lon="13.6535438">
        <ele>127.031</ele>
        <time>2014-05-19T17:36:56Z</time>
      </trkpt>
      <trkpt lat="56.3333427" lon="13.653723">
        <ele>126.551</ele>
        <time>2014-05-19T17:37:02Z</time>
      </trkpt>
      <trkpt lat="56.3331678" lon="13.6538428">
        <ele>127.031</ele>
        <time>2014-05-19T17:37:09Z</time>
      </trkpt>
      <trkpt lat="56.3330415" lon="13.6538666">
        <ele>127.993</ele>
        <time>2014-05-19T17:37:14Z</time>
      </trkpt>
      <trkpt lat="56.3329056" lon="13.6538354">
        <ele>128.473</ele>
        <time>2014-05-19T17:37:20Z</time>
      </trkpt>
      <trkpt lat="56.3327435" lon="13.6537267">
        <ele>128.954</ele>
        <time>2014-05-19T17:37:26Z</time>
      </trkpt>
      <trkpt lat="56.3326297" lon="13.6536169">
        <ele>128.954</ele>
        <time>2014-05-19T17:37:31Z</time>
      </trkpt>
      <trkpt lat="56.3325011" lon="13.6534635">
        <ele>127.993</ele>
        <time>2014-05-19T17:37:37Z</time>
      </trkpt>
      <trkpt lat="56.3324105" lon="13.6533127">
        <ele>126.07</ele>
        <time>2014-05-19T17:37:42Z</time>
      </trkpt>
      <trkpt lat="56.3323394" lon="13.6531531">
        <ele>125.109</ele>
        <time>2014-05-19T17:37:46Z</time>
      </trkpt>
      <trkpt lat="56.3322804" lon="13.65292">
        <ele>124.628</ele>
        <time>2014-05-19T17:37:51Z</time>
      </trkpt>
      <trkpt lat="56.3322441" lon="13.6526704">
        <ele>124.628</ele>
        <time>2014-05-19T17:37:56Z</time>
      </trkpt>
      <trkpt lat="56.3322468" lon="13.6523542">
        <ele>123.667</ele>
        <time>2014-05-19T17:38:02Z</time>
      </trkpt>
      <trkpt lat="56.3323136" lon="13.652201">
        <ele>122.705</ele>
        <time>2014-05-19T17:38:06Z</time>
      </trkpt>
      <trkpt lat="56.3324239" lon="13.6519928">
        <ele>122.225</ele>
        <time>2014-05-19T17:38:12Z</time>
      </trkpt>
      <trkpt lat="56.332558" lon="13.6516722">
        <ele>121.264</ele>
        <time>2014-05-19T17:38:20Z</time>
      </trkpt>
      <trkpt lat="56.3326773" lon="13.6515132">
        <ele>120.302</ele>
        <time>2014-05-19T17:38:25Z</time>
      </trkpt>
      <trkpt lat="56.3328069" lon="13.6514986">
        <ele>120.783</ele>
        <time>2014-05-19T17:38:30Z</time>
      </trkpt>
      <trkpt lat="56.3329201" lon="13.6515257">
        <ele>120.302</ele>
        <time>2014-05-19T17:38:34Z</time>
      </trkpt>
      <trkpt lat="56.3330077" lon="13.6515179">
        <ele>120.302</ele>
        <time>2014-05-19T17:38:38Z</time>
      </trkpt>
      <trkpt lat="56.3331464" lon="13.6515407">
        <ele>120.302</ele>
        <time>2014-05-19T17:38:44Z</time>
      </trkpt>
      <trkpt lat="56.3332738" lon="13.6516011">
        <ele>119.821</ele>
        <time>2014-05-19T17:38:49Z</time>
      </trkpt>
      <trkpt lat="56.3333181" lon="13.6518297">
        <ele>119.341</ele>
        <time>2014-05-19T17:38:55Z</time>
      </trkpt>
      <trkpt lat="56.3333905" lon="13.6519882">
        <ele>118.86</ele>
        <time>2014-05-19T17:38:59Z</time>
      </trkpt>
      <trkpt lat="56.3335112" lon="13.6521046">
        <ele>119.341</ele>
        <time>2014-05-19T17:39:04Z</time>
      </trkpt>
      <trkpt lat="56.3336246" lon="13.6521631">
        <ele>118.86</ele>
        <time>2014-05-19T17:39:08Z</time>
      </trkpt>
      <trkpt lat="56.3337879" lon="13.652095">
        <ele>118.379</ele>
        <time>2014-05-19T17:39:14Z</time>
      </trkpt>
      <trkpt lat="56.3339094" lon="13.6521155">
        <ele>118.379</ele>
        <time>2014-05-19T17:39:18Z</time>
      </trkpt>
      <trkpt lat="56.333938" lon="13.6521364">
        <ele>118.379</ele>
        <time>2014-05-19T17:39:19Z</time>
      </trkpt>
      <trkpt lat="56.3341002" lon="13.6522792">
        <ele>117.418</ele>
        <time>2014-05-19T17:39:25Z</time>
      </trkpt>
      <trkpt lat="56.3342267" lon="13.6524804">
        <ele>117.418</ele>
        <time>2014-05-19T17:39:30Z</time>
      </trkpt>
      <trkpt lat="56.334309" lon="13.6526987">
        <ele>117.899</ele>
        <time>2014-05-19T17:39:35Z</time>
      </trkpt>
      <trkpt lat="56.3343447" lon="13.6529308">
        <ele>118.86</ele>
        <time>2014-05-19T17:39:40Z</time>
      </trkpt>
      <trkpt lat="56.3343416" lon="13.6529744">
        <ele>119.341</ele>
        <time>2014-05-19T17:39:41Z</time>
      </trkpt>
      <trkpt lat="56.3344006" lon="13.6531145">
        <ele>120.783</ele>
        <time>2014-05-19T17:39:45Z</time>
      </trkpt>
      <trkpt lat="56.3344306" lon="13.6531382">
        <ele>120.783</ele>
        <time>2014-05-19T17:39:46Z</time>
      </trkpt>
      <trkpt lat="56.3345678" lon="13.653219">
        <ele>120.302</ele>
        <time>2014-05-19T17:39:51Z</time>
      </trkpt>
      <trkpt lat="56.3346938" lon="13.6532708">
        <ele>119.341</ele>
        <time>2014-05-19T17:39:55Z</time>
      </trkpt>
      <trkpt lat="56.3347896" lon="13.6533236">
        <ele>118.86</ele>
        <time>2014-05-19T17:39:58Z</time>
      </trkpt>
      <trkpt lat="56.3349213" lon="13.6532968">
        <ele>117.418</ele>
        <time>2014-05-19T17:40:03Z</time>
      </trkpt>
      <trkpt lat="56.3350827" lon="13.6532518">
        <ele>117.899</ele>
        <time>2014-05-19T17:40:09Z</time>
      </trkpt>
      <trkpt lat="56.3352072" lon="13.6532132">
        <ele>118.379</ele>
        <time>2014-05-19T17:40:14Z</time>
      </trkpt>
      <trkpt lat="56.3353295" lon="13.6531917">
        <ele>118.379</ele>
        <time>2014-05-19T17:40:19Z</time>
      </trkpt>
      <trkpt lat="56.3354002" lon="13.6532085">
        <ele>118.379</ele>
        <time>2014-05-19T17:40:22Z</time>
      </trkpt>
      <trkpt lat="56.3354269" lon="13.6532554">
        <ele>117.899</ele>
        <time>2014-05-19T17:40:24Z</time>
      </trkpt>
      <trkpt lat="56.3354951" lon="13.6534266">
        <ele>116.457</ele>
        <time>2014-05-19T17:40:29Z</time>
      </trkpt>
      <trkpt lat="56.3355434" lon="13.6535116">
        <ele>115.976</ele>
        <time>2014-05-19T17:40:31Z</time>
      </trkpt>
      <trkpt lat="56.3356637" lon="13.6537977">
        <ele>115.976</ele>
        <time>2014-05-19T17:40:37Z</time>
      </trkpt>
      <trkpt lat="56.3357056" lon="13.6540721">
        <ele>115.015</ele>
        <time>2014-05-19T17:40:42Z</time>
      </trkpt>
      <trkpt lat="56.335681" lon="13.6543654">
        <ele>115.496</ele>
        <time>2014-05-19T17:40:47Z</time>
      </trkpt>
      <trkpt lat="56.3356831" lon="13.6546941">
        <ele>117.418</ele>
        <time>2014-05-19T17:40:53Z</time>
      </trkpt>
      <trkpt lat="56.3357019" lon="13.6549108">
        <ele>119.821</ele>
        <time>2014-05-19T17:40:57Z</time>
      </trkpt>
      <trkpt lat="56.3357157" lon="13.6550564">
        <ele>120.302</ele>
        <time>2014-05-19T17:41:00Z</time>
      </trkpt>
      <trkpt lat="56.335726" lon="13.6550952">
        <ele>120.302</ele>
        <time>2014-05-19T17:41:01Z</time>
      </trkpt>
      <trkpt lat="56.3358511" lon="13.6551968">
        <ele>120.302</ele>
        <time>2014-05-19T17:41:06Z</time>
      </trkpt>
      <trkpt lat="56.3359836" lon="13.6552852">
        <ele>120.302</ele>
        <time>2014-05-19T17:41:09Z</time>
      </trkpt>
      <trkpt lat="56.3360639" lon="13.6553315">
        <ele>119.821</ele>
        <time>2014-05-19T17:41:13Z</time>
      </trkpt>
      <trkpt lat="56.336178" lon="13.6553911">
        <ele>120.302</ele>
        <time>2014-05-19T17:41:17Z</time>
      </trkpt>
      <trkpt lat="56.3362782" lon="13.6554859">
        <ele>120.783</ele>
        <time>2014-05-19T17:41:21Z</time>
      </trkpt>
      <trkpt lat="56.3363418" lon="13.6556045">
        <ele>120.783</ele>
        <time>2014-05-19T17:41:24Z</time>
      </trkpt>
      <trkpt lat="56.336411" lon="13.6558578">
        <ele>122.225</ele>
        <time>2014-05-19T17:41:29Z</time>
      </trkpt>
      <trkpt lat="56.3364241" lon="13.6559736">
        <ele>122.225</ele>
        <time>2014-05-19T17:41:32Z</time>
      </trkpt>
      <trkpt lat="56.3364207" lon="13.6560121">
        <ele>122.225</ele>
        <time>2014-05-19T17:41:33Z</time>
      </trkpt>
      <trkpt lat="56.3364222" lon="13.6561894">
        <ele>122.705</ele>
        <time>2014-05-19T17:41:37Z</time>
      </trkpt>
      <trkpt lat="56.3364305" lon="13.6562722">
        <ele>123.186</ele>
        <time>2014-05-19T17:41:39Z</time>
      </trkpt>
      <trkpt lat="56.3364925" lon="13.6563999">
        <ele>123.186</ele>
        <time>2014-05-19T17:41:44Z</time>
      </trkpt>
      <trkpt lat="56.3365893" lon="13.6565025">
        <ele>123.186</ele>
        <time>2014-05-19T17:41:50Z</time>
      </trkpt>
      <trkpt lat="56.3366632" lon="13.6565664">
        <ele>123.667</ele>
        <time>2014-05-19T17:41:54Z</time>
      </trkpt>
      <trkpt lat="56.3367633" lon="13.6566317">
        <ele>124.147</ele>
        <time>2014-05-19T17:41:58Z</time>
      </trkpt>
      <trkpt lat="56.3369103" lon="13.6567078">
        <ele>124.628</ele>
        <time>2014-05-19T17:42:04Z</time>
      </trkpt>
      <trkpt lat="56.3369791" lon="13.6567041">
        <ele>124.147</ele>
        <time>2014-05-19T17:42:07Z</time>
      </trkpt>
      <trkpt lat="56.3370626" lon="13.6567564">
        <ele>120.783</ele>
        <time>2014-05-19T17:42:12Z</time>
      </trkpt>
      <trkpt lat="56.3371166" lon="13.6567455">
        <ele>120.302</ele>
        <time>2014-05-19T17:42:14Z</time>
      </trkpt>
      <trkpt lat="56.3373039" lon="13.6568071">
        <ele>117.899</ele>
        <time>2014-05-19T17:42:20Z</time>
      </trkpt>
      <trkpt lat="56.3374196" lon="13.656871">
        <ele>117.899</ele>
        <time>2014-05-19T17:42:23Z</time>
      </trkpt>
      <trkpt lat="56.3374526" lon="13.6568972">
        <ele>117.899</ele>
        <time>2014-05-19T17:42:24Z</time>
      </trkpt>
      <trkpt lat="56.3376743" lon="13.6569249">
        <ele>115.976</ele>
        <time>2014-05-19T17:42:31Z</time>
      </trkpt>
      <trkpt lat="56.3378188" lon="13.6569601">
        <ele>115.015</ele>
        <time>2014-05-19T17:42:36Z</time>
      </trkpt>
      <trkpt lat="56.3379607" lon="13.6569699">
        <ele>115.976</ele>
        <time>2014-05-19T17:42:41Z</time>
      </trkpt>
      <trkpt lat="56.3381511" lon="13.6569755">
        <ele>116.457</ele>
        <time>2014-05-19T17:42:48Z</time>
      </trkpt>
      <trkpt lat="56.3382413" lon="13.6569936">
        <ele>116.457</ele>
        <time>2014-05-19T17:42:52Z</time>
      </trkpt>
      <trkpt lat="56.338321" lon="13.6570227">
        <ele>115.496</ele>
        <time>2014-05-19T17:42:56Z</time>
      </trkpt>
      <trkpt lat="56.3384371" lon="13.6571031">
        <ele>115.015</ele>
        <time>2014-05-19T17:43:01Z</time>
      </trkpt>
      <trkpt lat="56.3385406" lon="13.6571705">
        <ele>115.496</ele>
        <time>2014-05-19T17:43:05Z</time>
      </trkpt>
      <trkpt lat="56.3386685" lon="13.6572554">
        <ele>116.457</ele>
        <time>2014-05-19T17:43:10Z</time>
      </trkpt>
      <trkpt lat="56.3388788" lon="13.6573536">
        <ele>116.457</ele>
        <time>2014-05-19T17:43:17Z</time>
      </trkpt>
      <trkpt lat="56.3390196" lon="13.6572491">
        <ele>115.496</ele>
        <time>2014-05-19T17:43:23Z</time>
      </trkpt>
      <trkpt lat="56.3391081" lon="13.6571721">
        <ele>115.015</ele>
        <time>2014-05-19T17:43:27Z</time>
      </trkpt>
      <trkpt lat="56.3392129" lon="13.6570674">
        <ele>114.534</ele>
        <time>2014-05-19T17:43:32Z</time>
      </trkpt>
      <trkpt lat="56.3393854" lon="13.6569637">
        <ele>116.457</ele>
        <time>2014-05-19T17:43:39Z</time>
      </trkpt>
      <trkpt lat="56.3394098" lon="13.6569746">
        <ele>116.938</ele>
        <time>2014-05-19T17:43:40Z</time>
      </trkpt>
      <trkpt lat="56.3394804" lon="13.657057">
        <ele>117.899</ele>
        <time>2014-05-19T17:43:44Z</time>
      </trkpt>
      <trkpt lat="56.3396443" lon="13.6572202">
        <ele>116.938</ele>
        <time>2014-05-19T17:43:50Z</time>
      </trkpt>
      <trkpt lat="56.3397945" lon="13.6573465">
        <ele>115.976</ele>
        <time>2014-05-19T17:43:56Z</time>
      </trkpt>
      <trkpt lat="56.3398886" lon="13.6574171">
        <ele>115.015</ele>
        <time>2014-05-19T17:44:00Z</time>
      </trkpt>
      <trkpt lat="56.3400216" lon="13.6575344">
        <ele>115.015</ele>
        <time>2014-05-19T17:44:05Z</time>
      </trkpt>
      <trkpt lat="56.3401429" lon="13.6578195">
        <ele>115.015</ele>
        <time>2014-05-19T17:44:13Z</time>
      </trkpt>
      <trkpt lat="56.340253" lon="13.6580772">
        <ele>115.496</ele>
        <time>2014-05-19T17:44:19Z</time>
      </trkpt>
      <trkpt lat="56.3403351" lon="13.6582889">
        <ele>115.976</ele>
        <time>2014-05-19T17:44:24Z</time>
      </trkpt>
      <trkpt lat="56.3403904" lon="13.6584612">
        <ele>116.457</ele>
        <time>2014-05-19T17:44:28Z</time>
      </trkpt>
      <trkpt lat="56.3404244" lon="13.658583">
        <ele>116.938</ele>
        <time>2014-05-19T17:44:31Z</time>
      </trkpt>
      <trkpt lat="56.3405391" lon="13.6588461">
        <ele>116.457</ele>
        <time>2014-05-19T17:44:37Z</time>
      </trkpt>
      <trkpt lat="56.3406084" lon="13.6590177">
        <ele>116.938</ele>
        <time>2014-05-19T17:44:41Z</time>
      </trkpt>
      <trkpt lat="56.3406659" lon="13.6591843">
        <ele>116.938</ele>
        <time>2014-05-19T17:44:45Z</time>
      </trkpt>
      <trkpt lat="56.3407794" lon="13.6595232">
        <ele>117.418</ele>
        <time>2014-05-19T17:44:52Z</time>
      </trkpt>
      <trkpt lat="56.3408236" lon="13.659574">
        <ele>117.899</ele>
        <time>2014-05-19T17:44:56Z</time>
      </trkpt>
      <trkpt lat="56.3408399" lon="13.6596266">
        <ele>115.976</ele>
        <time>2014-05-19T17:45:07Z</time>
      </trkpt>
      <trkpt lat="56.3408343" lon="13.6596606">
        <ele>115.015</ele>
        <time>2014-05-19T17:45:20Z</time>
      </trkpt>
      <trkpt lat="56.3408305" lon="13.6596847">
        <ele>115.015</ele>
        <time>2014-05-19T17:45:44Z</time>
      </trkpt>
      <trkpt lat="56.3408267" lon="13.6597082">
        <ele>113.092</ele>
        <time>2014-05-19T17:46:00Z</time>
      </trkpt>
      <trkpt lat="56.3408395" lon="13.6597567">
        <ele>110.689</ele>
        <time>2014-05-19T17:46:24Z</time>
      </trkpt>
      <trkpt lat="56.3408692" lon="13.6598558">
        <ele>109.728</ele>
        <time>2014-05-19T17:46:27Z</time>
      </trkpt>
      <trkpt lat="56.3410157" lon="13.6599105">
        <ele>108.766</ele>
        <time>2014-05-19T17:46:32Z</time>
      </trkpt>
      <trkpt lat="56.3412865" lon="13.6597972">
        <ele>108.286</ele>
        <time>2014-05-19T17:46:38Z</time>
      </trkpt>
      <trkpt lat="56.3415477" lon="13.6596848">
        <ele>106.844</ele>
        <time>2014-05-19T17:46:43Z</time>
      </trkpt>
      <trkpt lat="56.3420568" lon="13.6594704">
        <ele>107.324</ele>
        <time>2014-05-19T17:46:52Z</time>
      </trkpt>
      <trkpt lat="56.342538" lon="13.6593394">
        <ele>108.766</ele>
        <time>2014-05-19T17:47:01Z</time>
      </trkpt>
      <trkpt lat="56.3427898" lon="13.6592858">
        <ele>110.689</ele>
        <time>2014-05-19T17:47:07Z</time>
      </trkpt>
      <trkpt lat="56.3429932" lon="13.6591975">
        <ele>112.131</ele>
        <time>2014-05-19T17:47:14Z</time>
      </trkpt>
      <trkpt lat="56.3430311" lon="13.6591">
        <ele>112.612</ele>
        <time>2014-05-19T17:47:16Z</time>
      </trkpt>
      <trkpt lat="56.3430105" lon="13.6586722">
        <ele>113.092</ele>
        <time>2014-05-19T17:47:22Z</time>
      </trkpt>
      <trkpt lat="56.3429676" lon="13.6581002">
        <ele>112.612</ele>
        <time>2014-05-19T17:47:28Z</time>
      </trkpt>
      <trkpt lat="56.3429421" lon="13.6577711">
        <ele>112.131</ele>
        <time>2014-05-19T17:47:31Z</time>
      </trkpt>
      <trkpt lat="56.3429922" lon="13.6573091">
        <ele>111.65</ele>
        <time>2014-05-19T17:47:35Z</time>
      </trkpt>
      <trkpt lat="56.3430318" lon="13.6572091">
        <ele>111.65</ele>
        <time>2014-05-19T17:47:36Z</time>
      </trkpt>
      <trkpt lat="56.3432743" lon="13.6565554">
        <ele>111.65</ele>
        <time>2014-05-19T17:47:43Z</time>
      </trkpt>
      <trkpt lat="56.3433375" lon="13.6563912">
        <ele>112.131</ele>
        <time>2014-05-19T17:47:45Z</time>
      </trkpt>
      <trkpt lat="56.343607" lon="13.655967">
        <ele>110.689</ele>
        <time>2014-05-19T17:47:51Z</time>
      </trkpt>
      <trkpt lat="56.3440527" lon="13.6553207">
        <ele>108.766</ele>
        <time>2014-05-19T17:47:59Z</time>
      </trkpt>
      <trkpt lat="56.3441608" lon="13.6551516">
        <ele>108.286</ele>
        <time>2014-05-19T17:48:01Z</time>
      </trkpt>
      <trkpt lat="56.3442936" lon="13.6547238">
        <ele>107.805</ele>
        <time>2014-05-19T17:48:05Z</time>
      </trkpt>
      <trkpt lat="56.3442683" lon="13.6543597">
        <ele>107.805</ele>
        <time>2014-05-19T17:48:08Z</time>
      </trkpt>
      <trkpt lat="56.3442408" lon="13.6542477">
        <ele>107.805</ele>
        <time>2014-05-19T17:48:09Z</time>
      </trkpt>
      <trkpt lat="56.3441859" lon="13.6540375">
        <ele>107.805</ele>
        <time>2014-05-19T17:48:11Z</time>
      </trkpt>
      <trkpt lat="56.3441268" lon="13.6535863">
        <ele>108.766</ele>
        <time>2014-05-19T17:48:15Z</time>
      </trkpt>
      <trkpt lat="56.3441794" lon="13.6530263">
        <ele>109.247</ele>
        <time>2014-05-19T17:48:20Z</time>
      </trkpt>
      <trkpt lat="56.344322" lon="13.652284">
        <ele>108.286</ele>
        <time>2014-05-19T17:48:27Z</time>
      </trkpt>
      <trkpt lat="56.3443314" lon="13.652173">
        <ele>108.286</ele>
        <time>2014-05-19T17:48:28Z</time>
      </trkpt>
      <trkpt lat="56.344382" lon="13.6517754">
        <ele>109.247</ele>
        <time>2014-05-19T17:48:32Z</time>
      </trkpt>
      <trkpt lat="56.3444644" lon="13.6516474">
        <ele>109.728</ele>
        <time>2014-05-19T17:48:34Z</time>
      </trkpt>
      <trkpt lat="56.3447531" lon="13.651333">
        <ele>112.612</ele>
        <time>2014-05-19T17:48:41Z</time>
      </trkpt>
      <trkpt lat="56.3449532" lon="13.6510978">
        <ele>114.534</ele>
        <time>2014-05-19T17:48:48Z</time>
      </trkpt>
      <trkpt lat="56.3451818" lon="13.650838">
        <ele>114.534</ele>
        <time>2014-05-19T17:48:55Z</time>
      </trkpt>
      <trkpt lat="56.3454555" lon="13.6505286">
        <ele>114.534</ele>
        <time>2014-05-19T17:49:02Z</time>
      </trkpt>
      <trkpt lat="56.345848" lon="13.6500793">
        <ele>115.496</ele>
        <time>2014-05-19T17:49:11Z</time>
      </trkpt>
      <trkpt lat="56.3459404" lon="13.6499737">
        <ele>115.976</ele>
        <time>2014-05-19T17:49:13Z</time>
      </trkpt>
      <trkpt lat="56.3460321" lon="13.6498631">
        <ele>115.976</ele>
        <time>2014-05-19T17:49:15Z</time>
      </trkpt>
      <trkpt lat="56.3462046" lon="13.6496787">
        <ele>115.496</ele>
        <time>2014-05-19T17:49:19Z</time>
      </trkpt>
      <trkpt lat="56.3463704" lon="13.6494891">
        <ele>114.534</ele>
        <time>2014-05-19T17:49:23Z</time>
      </trkpt>
      <trkpt lat="56.3466669" lon="13.6491532">
        <ele>113.092</ele>
        <time>2014-05-19T17:49:30Z</time>
      </trkpt>
      <trkpt lat="56.3469805" lon="13.648772">
        <ele>114.054</ele>
        <time>2014-05-19T17:49:37Z</time>
      </trkpt>
      <trkpt lat="56.3471188" lon="13.6486238">
        <ele>114.054</ele>
        <time>2014-05-19T17:49:40Z</time>
      </trkpt>
      <trkpt lat="56.347525" lon="13.648143">
        <ele>114.054</ele>
        <time>2014-05-19T17:49:49Z</time>
      </trkpt>
      <trkpt lat="56.3476177" lon="13.6480404">
        <ele>114.054</ele>
        <time>2014-05-19T17:49:51Z</time>
      </trkpt>
      <trkpt lat="56.3479917" lon="13.6476082">
        <ele>114.534</ele>
        <time>2014-05-19T17:49:59Z</time>
      </trkpt>
      <trkpt lat="56.3483463" lon="13.6471938">
        <ele>114.534</ele>
        <time>2014-05-19T17:50:07Z</time>
      </trkpt>
      <trkpt lat="56.3487432" lon="13.6467178">
        <ele>114.054</ele>
        <time>2014-05-19T17:50:16Z</time>
      </trkpt>
      <trkpt lat="56.3487842" lon="13.6466645">
        <ele>114.054</ele>
        <time>2014-05-19T17:50:17Z</time>
      </trkpt>
      <trkpt lat="56.3488376" lon="13.6464208">
        <ele>113.573</ele>
        <time>2014-05-19T17:50:21Z</time>
      </trkpt>
      <trkpt lat="56.348827" lon="13.6463806">
        <ele>114.054</ele>
        <time>2014-05-19T17:50:22Z</time>
      </trkpt>
    </trkseg>
  </trk>
</gpx>